Tokuyo Maru No.15 — JD2184 — position and weather

sailwx.info

Track history (hours):
 
Tides and Currents Weather Stations Pressure Air Temp Water Temp Dewpoint Dewpoint Depression Visibility Wind Speed Wind Dir Waves Ship Positions

Tokuyo Maru No.15

Last reported at 2016-Feb-11 05:24 UTC. Time now 2016-Feb-11 15:03 UTC.
Position N 34°14' E 134°58'.

Length 66 m; draft 4.5 m.

Type: Tanker. MMSI: 431402034.

Date/timePositionNaut miles runAvg speedWind from/ knotsBaromVisibWave heightAir tempDewpointWater temp
2016-Feb-11 05:24N 34°14' E 134°58'1212.0
2016-Feb-11 04:24N 34°25' E 135°06'1112.4
2016-Feb-11 03:32N 34°30' E 135°17'7 1.4
2016-Feb-10 22:32N 34°33' E 135°25'4 3.3
2016-Feb-10 21:19N 34°32' E 135°20'0 0.0
2016-Feb-10 20:19N 34°32' E 135°20'0 0.0
2016-Feb-10 19:31N 34°32' E 135°20'0 0.0
2016-Feb-10 18:31N 34°32' E 135°20'0 0.1
2016-Feb-10 17:33N 34°32' E 135°20'1111.3
2016-Feb-10 16:33N 34°26' E 135°09'1310.5
2016-Feb-10 15:18N 34°15' E 134°59'911.9
2016-Feb-10 14:32N 34°06' E 135°00'243 8.7
2016-Feb-09 10:29N 35°11' E 139°45'1111.7
2016-Feb-09 09:33N 35°22' E 139°42'1212.1
2016-Feb-09 08:33N 35°30' E 139°53'8 8.1
2016-Feb-09 07:33N 35°31' E 140°03'0 0.0
2016-Feb-09 06:26N 35°31' E 140°03'0 0.0
2016-Feb-09 05:32N 35°31' E 140°03'0 0.0
2016-Feb-09 04:29N 35°31' E 140°03'0 0.0
2016-Feb-09 03:32N 35°31' E 140°03'0 0.0
2016-Feb-09 02:32N 35°31' E 140°03'0 0.0
2016-Feb-09 01:26N 35°31' E 140°03'0 0.0
2016-Feb-09 00:32N 35°31' E 140°03'2 2.2
2016-Feb-08 23:33N 35°31' E 140°00'4 4.2
2016-Feb-08 22:34N 35°29' E 139°56'0 0.0
2016-Feb-08 21:31N 35°29' E 139°56'0 0.0
2016-Feb-08 20:31N 35°29' E 139°56'0 0.1
2016-Feb-08 19:31N 35°29' E 139°56'0 0.0
2016-Feb-08 18:31N 35°29' E 139°56'0 0.0
2016-Feb-08 17:31N 35°29' E 139°56'0 0.0
2016-Feb-08 16:31N 35°29' E 139°56'0 0.1
2016-Feb-08 15:28N 35°29' E 139°56'0 0.0
2016-Feb-08 14:31N 35°29' E 139°56'0 0.0
2016-Feb-08 13:31N 35°29' E 139°56'0 0.0
2016-Feb-08 12:31N 35°29' E 139°56'0 0.0
2016-Feb-08 11:31N 35°29' E 139°56'0 0.0
2016-Feb-08 10:25N 35°29' E 139°56'0 0.0
2016-Feb-08 09:13N 35°29' E 139°56'0 0.0
2016-Feb-08 08:31N 35°29' E 139°56'0 0.0
2016-Feb-08 07:19N 35°29' E 139°56'0 0.0
2016-Feb-08 06:31N 35°29' E 139°56'0 0.0
2016-Feb-08 05:19N 35°29' E 139°56'0 0.0
2016-Feb-08 04:31N 35°29' E 139°56'0 0.0
2016-Feb-08 03:31N 35°29' E 139°56'0 0.0
2016-Feb-08 02:31N 35°29' E 139°56'0 0.0
2016-Feb-08 01:25N 35°29' E 139°56'0 0.0
2016-Feb-08 00:25N 35°29' E 139°56'0 0.0
2016-Feb-07 23:31N 35°29' E 139°56'8 8.5
2016-Feb-07 22:33N 35°25' E 139°47'10 9.9
2016-Feb-07 21:33N 35°15' E 139°47'6 0.2
2016-Feb-06 10:33N 35°09' E 139°43'1111.4
2016-Feb-06 09:33N 35°20' E 139°42'1211.9
2016-Feb-06 08:33N 35°30' E 139°51'9 9.1
2016-Feb-06 07:33N 35°31' E 140°03'0 0.0
2016-Feb-06 06:31N 35°31' E 140°03'0 0.0
2016-Feb-06 05:31N 35°31' E 140°03'0 0.0
2016-Feb-06 04:31N 35°31' E 140°03'0 0.0
2016-Feb-06 03:31N 35°31' E 140°03'0 0.0
2016-Feb-06 02:31N 35°31' E 140°03'0 0.0
2016-Feb-06 01:31N 35°31' E 140°03'0 0.0
2016-Feb-06 00:25N 35°31' E 140°03'2 1.8
2016-Feb-05 23:33N 35°31' E 140°01'5 3.9
2016-Feb-05 22:25N 35°29' E 139°56'0 0.0
2016-Feb-05 21:31N 35°29' E 139°56'0 0.0
2016-Feb-05 20:31N 35°29' E 139°56'0 0.0
2016-Feb-05 19:31N 35°29' E 139°56'0 0.0
2016-Feb-05 18:31N 35°29' E 139°56'0 0.0
2016-Feb-05 17:31N 35°29' E 139°56'0 0.0
2016-Feb-05 16:31N 35°29' E 139°56'0 0.0
2016-Feb-05 15:25N 35°29' E 139°56'0 0.0
2016-Feb-05 14:28N 35°29' E 139°56'0 0.0
2016-Feb-05 13:31N 35°29' E 139°56'0 0.0
2016-Feb-05 12:31N 35°29' E 139°56'0 0.0
2016-Feb-05 11:31N 35°29' E 139°56'0 0.0
2016-Feb-05 10:31N 35°29' E 139°56'0 0.0
2016-Feb-05 09:31N 35°29' E 139°56'0 0.0
2016-Feb-05 08:31N 35°29' E 139°56'0 0.0
2016-Feb-05 07:28N 35°29' E 139°56'0 0.0
2016-Feb-05 06:31N 35°29' E 139°56'0 0.0
2016-Feb-05 05:31N 35°29' E 139°56'0 0.0
2016-Feb-05 04:28N 35°29' E 139°56'0 0.0
2016-Feb-05 03:25N 35°29' E 139°56'0 0.0
2016-Feb-05 02:28N 35°29' E 139°56'0 0.0
2016-Feb-05 01:28N 35°29' E 139°56'0 0.0
2016-Feb-05 00:25N 35°29' E 139°56'3 3.1
2016-Feb-04 23:33N 35°28' E 139°53'1111.2
2016-Feb-04 22:33N 35°20' E 139°44'1110.6
2016-Feb-04 21:33N 35°09' E 139°45'7 0.2
2016-Feb-03 04:31N 35°15' E 139°46'1010.6
2016-Feb-03 03:33N 35°25' E 139°45'1212.3
2016-Feb-03 02:33N 35°31' E 139°58'4 4.1
2016-Feb-03 01:31N 35°32' E 140°03'0 0.0
2016-Feb-03 00:28N 35°32' E 140°03'1 1.3
2016-Feb-02 23:28N 35°32' E 140°02'7 7.4
2016-Feb-02 22:32N 35°29' E 139°54'0 0.0
2016-Feb-02 21:32N 35°29' E 139°54'0 0.0
2016-Feb-02 20:32N 35°29' E 139°54'0 0.0
2016-Feb-02 19:32N 35°29' E 139°54'6 6.3
2016-Feb-02 18:33N 35°26' E 139°48'10 9.8
2016-Feb-02 17:31N 35°15' E 139°47'  
Track history (hours):
 
Tides and Currents Weather Stations Pressure Air Temp Water Temp Dewpoint Dewpoint Depression Visibility Wind Speed Wind Dir Waves Ship Positions

Tokuyo Maru No.15

Last reported at 2016-Feb-11 05:24 UTC. Time now 2016-Feb-11 15:03 UTC.
Position N 34°14' E 134°58'.

Length 66 m; draft 4.5 m.

Type: Tanker. MMSI: 431402034.

Date/timePositionNaut miles runAvg speedWind from/ knotsBaromVisibWave heightAir tempDewpointWater temp
2016-Feb-11 05:24N 34°14' E 134°58'1212.0
2016-Feb-11 04:24N 34°25' E 135°06'1112.4
2016-Feb-11 03:32N 34°30' E 135°17'7 1.4
2016-Feb-10 22:32N 34°33' E 135°25'4 3.3
2016-Feb-10 21:19N 34°32' E 135°20'0 0.0
2016-Feb-10 20:19N 34°32' E 135°20'0 0.0
2016-Feb-10 19:31N 34°32' E 135°20'0 0.0
2016-Feb-10 18:31N 34°32' E 135°20'0 0.1
2016-Feb-10 17:33N 34°32' E 135°20'1111.3
2016-Feb-10 16:33N 34°26' E 135°09'1310.5
2016-Feb-10 15:18N 34°15' E 134°59'911.9
2016-Feb-10 14:32N 34°06' E 135°00'243 8.7
2016-Feb-09 10:29N 35°11' E 139°45'1111.7
2016-Feb-09 09:33N 35°22' E 139°42'1212.1
2016-Feb-09 08:33N 35°30' E 139°53'8 8.1
2016-Feb-09 07:33N 35°31' E 140°03'0 0.0
2016-Feb-09 06:26N 35°31' E 140°03'0 0.0
2016-Feb-09 05:32N 35°31' E 140°03'0 0.0
2016-Feb-09 04:29N 35°31' E 140°03'0 0.0
2016-Feb-09 03:32N 35°31' E 140°03'0 0.0
2016-Feb-09 02:32N 35°31' E 140°03'0 0.0
2016-Feb-09 01:26N 35°31' E 140°03'0 0.0
2016-Feb-09 00:32N 35°31' E 140°03'2 2.2
2016-Feb-08 23:33N 35°31' E 140°00'4 4.2
2016-Feb-08 22:34N 35°29' E 139°56'0 0.0
2016-Feb-08 21:31N 35°29' E 139°56'0 0.0
2016-Feb-08 20:31N 35°29' E 139°56'0 0.1
2016-Feb-08 19:31N 35°29' E 139°56'0 0.0
2016-Feb-08 18:31N 35°29' E 139°56'0 0.0
2016-Feb-08 17:31N 35°29' E 139°56'0 0.0
2016-Feb-08 16:31N 35°29' E 139°56'0 0.1
2016-Feb-08 15:28N 35°29' E 139°56'0 0.0
2016-Feb-08 14:31N 35°29' E 139°56'0 0.0
2016-Feb-08 13:31N 35°29' E 139°56'0 0.0
2016-Feb-08 12:31N 35°29' E 139°56'0 0.0
2016-Feb-08 11:31N 35°29' E 139°56'0 0.0
2016-Feb-08 10:25N 35°29' E 139°56'0 0.0
2016-Feb-08 09:13N 35°29' E 139°56'0 0.0
2016-Feb-08 08:31N 35°29' E 139°56'0 0.0
2016-Feb-08 07:19N 35°29' E 139°56'0 0.0
2016-Feb-08 06:31N 35°29' E 139°56'0 0.0
2016-Feb-08 05:19N 35°29' E 139°56'0 0.0
2016-Feb-08 04:31N 35°29' E 139°56'0 0.0
2016-Feb-08 03:31N 35°29' E 139°56'0 0.0
2016-Feb-08 02:31N 35°29' E 139°56'0 0.0
2016-Feb-08 01:25N 35°29' E 139°56'0 0.0
2016-Feb-08 00:25N 35°29' E 139°56'0 0.0
2016-Feb-07 23:31N 35°29' E 139°56'8 8.5
2016-Feb-07 22:33N 35°25' E 139°47'10 9.9
2016-Feb-07 21:33N 35°15' E 139°47'6 0.2
2016-Feb-06 10:33N 35°09' E 139°43'1111.4
2016-Feb-06 09:33N 35°20' E 139°42'1211.9
2016-Feb-06 08:33N 35°30' E 139°51'9 9.1
2016-Feb-06 07:33N 35°31' E 140°03'0 0.0
2016-Feb-06 06:31N 35°31' E 140°03'0 0.0
2016-Feb-06 05:31N 35°31' E 140°03'0 0.0
2016-Feb-06 04:31N 35°31' E 140°03'0 0.0
2016-Feb-06 03:31N 35°31' E 140°03'0 0.0
2016-Feb-06 02:31N 35°31' E 140°03'0 0.0
2016-Feb-06 01:31N 35°31' E 140°03'0 0.0
2016-Feb-06 00:25N 35°31' E 140°03'2 1.8
2016-Feb-05 23:33N 35°31' E 140°01'5 3.9
2016-Feb-05 22:25N 35°29' E 139°56'0 0.0
2016-Feb-05 21:31N 35°29' E 139°56'0 0.0
2016-Feb-05 20:31N 35°29' E 139°56'0 0.0
2016-Feb-05 19:31N 35°29' E 139°56'0 0.0
2016-Feb-05 18:31N 35°29' E 139°56'0 0.0
2016-Feb-05 17:31N 35°29' E 139°56'0 0.0
2016-Feb-05 16:31N 35°29' E 139°56'0 0.0
2016-Feb-05 15:25N 35°29' E 139°56'0 0.0
2016-Feb-05 14:28N 35°29' E 139°56'0 0.0
2016-Feb-05 13:31N 35°29' E 139°56'0 0.0
2016-Feb-05 12:31N 35°29' E 139°56'0 0.0
2016-Feb-05 11:31N 35°29' E 139°56'0 0.0
2016-Feb-05 10:31N 35°29' E 139°56'0 0.0
2016-Feb-05 09:31N 35°29' E 139°56'0 0.0
2016-Feb-05 08:31N 35°29' E 139°56'0 0.0
2016-Feb-05 07:28N 35°29' E 139°56'0 0.0
2016-Feb-05 06:31N 35°29' E 139°56'0 0.0
2016-Feb-05 05:31N 35°29' E 139°56'0 0.0
2016-Feb-05 04:28N 35°29' E 139°56'0 0.0
2016-Feb-05 03:25N 35°29' E 139°56'0 0.0
2016-Feb-05 02:28N 35°29' E 139°56'0 0.0
2016-Feb-05 01:28N 35°29' E 139°56'0 0.0
2016-Feb-05 00:25N 35°29' E 139°56'3 3.1
2016-Feb-04 23:33N 35°28' E 139°53'1111.2
2016-Feb-04 22:33N 35°20' E 139°44'1110.6
2016-Feb-04 21:33N 35°09' E 139°45'7 0.2
2016-Feb-03 04:31N 35°15' E 139°46'1010.6
2016-Feb-03 03:33N 35°25' E 139°45'1212.3
2016-Feb-03 02:33N 35°31' E 139°58'4 4.1
2016-Feb-03 01:31N 35°32' E 140°03'0 0.0
2016-Feb-03 00:28N 35°32' E 140°03'1 1.3
2016-Feb-02 23:28N 35°32' E 140°02'7 7.4
2016-Feb-02 22:32N 35°29' E 139°54'0 0.0
2016-Feb-02 21:32N 35°29' E 139°54'0 0.0
2016-Feb-02 20:32N 35°29' E 139°54'0 0.0
2016-Feb-02 19:32N 35°29' E 139°54'6 6.3
2016-Feb-02 18:33N 35°26' E 139°48'10 9.8
2016-Feb-02 17:31N 35°15' E 139°47'  

Dump ship's entire track history